createdAt,value
2023-03-05T00:02:08.776Z,299.25
2023-03-05T00:04:37.200Z,246.32
2023-03-05T00:07:08.994Z,300.38
2023-03-05T00:09:37.365Z,320.73
2023-03-05T00:12:06.538Z,250.60
2023-03-05T00:14:34.937Z,296.00
2023-03-05T00:17:03.316Z,354.02
2023-03-05T00:19:31.772Z,278.52
2023-03-05T00:22:00.215Z,297.67
2023-03-05T00:24:29.942Z,283.88
2023-03-05T00:26:58.393Z,313.30
2023-03-05T00:29:29.545Z,286.33
2023-03-05T00:31:59.290Z,302.90
2023-03-05T00:34:28.491Z,346.02
2023-03-05T00:36:56.869Z,274.75
2023-03-05T00:39:25.304Z,269.10
2023-03-05T00:41:55.343Z,237.85
2023-03-05T00:44:24.114Z,328.00
2023-03-05T00:46:52.687Z,337.67
2023-03-05T00:49:21.120Z,276.20
2023-03-05T00:51:49.510Z,336.13
2023-03-05T00:54:17.999Z,287.98
2023-03-05T00:56:47.402Z,286.40
2023-03-05T00:59:17.330Z,309.48
2023-03-05T01:01:45.845Z,319.92
2023-03-05T01:04:14.332Z,270.20
2023-03-05T01:06:44.831Z,293.27
2023-03-05T01:09:13.443Z,305.50
2023-03-05T01:11:41.868Z,289.10
2023-03-05T01:14:10.385Z,342.70
2023-03-05T01:16:40.136Z,323.63
2023-03-05T01:19:08.579Z,335.88
2023-03-05T01:21:37.399Z,364.83
2023-03-05T01:24:06.749Z,285.88
2023-03-05T01:26:35.460Z,274.15
2023-03-05T01:29:05.708Z,304.20
2023-03-05T01:31:34.334Z,337.10
2023-03-05T01:34:04.213Z,319.52
2023-03-05T01:36:32.598Z,280.85
2023-03-05T01:39:01.287Z,308.17
2023-03-05T01:41:29.702Z,302.65
2023-03-05T01:43:58.099Z,300.88
2023-03-05T01:46:34.773Z,289.77
2023-03-05T01:49:15.836Z,353.90
2023-03-05T01:51:49.870Z,343.50
2023-03-05T01:54:19.808Z,328.20
2023-03-05T01:56:48.754Z,287.40
2023-03-05T01:59:17.832Z,341.95
2023-03-05T02:01:49.151Z,352.63
2023-03-05T02:04:19.971Z,323.70
2023-03-05T02:06:49.917Z,361.83
2023-03-05T02:09:18.475Z,325.55
2023-03-05T02:11:47.405Z,340.67
2023-03-05T02:14:15.842Z,325.60
2023-03-05T02:16:44.678Z,337.75
2023-03-05T02:19:14.536Z,333.08
2023-03-05T02:21:45.909Z,329.80
2023-03-05T02:24:16.196Z,311.58
2023-03-05T02:26:45.080Z,378.58
2023-03-05T02:29:16.148Z,417.27
2023-03-05T02:31:44.553Z,417.70
2023-03-05T02:34:13.356Z,353.00
2023-03-05T02:36:43.088Z,382.33
2023-03-05T02:39:11.541Z,383.40
2023-03-05T02:41:40.129Z,439.65
2023-03-05T02:44:08.512Z,400.17
2023-03-05T02:46:36.939Z,429.70
2023-03-05T02:49:05.663Z,378.70
2023-03-05T02:51:34.117Z,399.77
2023-03-05T02:54:03.931Z,383.45
2023-03-05T02:56:32.514Z,406.20
2023-03-05T02:59:00.961Z,443.17
2023-03-05T03:01:29.852Z,455.10
2023-03-05T03:03:58.915Z,428.67
2023-03-05T03:06:27.293Z,322.38
2023-03-05T03:08:55.785Z,430.67
2023-03-05T03:11:25.663Z,359.70
2023-03-05T03:13:54.111Z,440.70
2023-03-05T03:16:22.549Z,398.33
2023-03-05T03:18:50.908Z,383.00
2023-03-05T03:21:20.665Z,462.08
2023-03-05T03:23:49.032Z,408.20
2023-03-05T03:26:17.746Z,408.92
2023-03-05T03:28:47.751Z,376.85
2023-03-05T03:31:16.730Z,425.80
2023-03-05T03:33:45.180Z,379.33
2023-03-05T03:36:13.655Z,483.80
2023-03-05T03:38:42.026Z,440.08
2023-03-05T03:41:10.997Z,482.48
2023-03-05T03:43:39.355Z,452.60
2023-03-05T03:46:09.458Z,493.15
2023-03-05T03:48:38.092Z,522.13
2023-03-05T03:51:08.375Z,490.88
2023-03-05T03:53:36.730Z,510.65
2023-03-05T03:56:05.734Z,542.72
2023-03-05T03:58:34.394Z,534.15
2023-03-05T04:01:02.981Z,487.23
2023-03-05T04:03:32.774Z,555.83
2023-03-05T04:06:01.099Z,530.47
2023-03-05T04:08:29.544Z,462.40
2023-03-05T04:10:57.984Z,551.58
2023-03-05T04:13:26.346Z,552.30
2023-03-05T04:15:55.058Z,529.10
2023-03-05T04:18:24.053Z,519.88
2023-03-05T04:20:53.804Z,550.25
2023-03-05T04:23:22.350Z,515.78
2023-03-05T04:25:51.009Z,560.20
2023-03-05T04:28:19.418Z,536.92
2023-03-05T04:30:47.969Z,511.35
2023-03-05T04:33:16.849Z,506.63
2023-03-05T04:35:45.310Z,531.55
2023-03-05T04:38:15.216Z,575.15
2023-03-05T04:40:46.935Z,527.92
2023-03-05T04:43:15.607Z,546.65
2023-03-05T04:45:45.207Z,540.13
2023-03-05T04:48:13.916Z,534.67
2023-03-05T04:50:42.396Z,531.97
2023-03-05T04:53:10.748Z,503.83
2023-03-05T04:55:40.547Z,477.17
2023-03-05T04:58:08.943Z,541.40
2023-03-05T05:00:37.370Z,503.25
2023-03-05T05:03:05.737Z,495.77
2023-03-05T05:05:34.191Z,552.17
2023-03-05T05:08:02.667Z,497.45
2023-03-05T05:10:31.606Z,506.08
2023-03-05T05:13:01.809Z,527.67
2023-03-05T05:15:30.302Z,552.13
2023-03-05T05:17:58.853Z,439.25
2023-03-05T05:20:27.252Z,538.95
2023-03-05T05:22:55.603Z,525.53
2023-03-05T05:25:23.968Z,517.05
2023-03-05T05:27:52.568Z,461.52
2023-03-05T05:30:22.358Z,547.55
2023-03-05T05:32:50.706Z,460.88
2023-03-05T05:35:19.385Z,435.00
2023-03-05T05:37:48.116Z,418.92
2023-03-05T05:40:16.693Z,525.28
2023-03-05T05:42:45.490Z,524.83
2023-03-05T05:45:14.147Z,531.97
2023-03-05T05:47:43.992Z,521.20
2023-03-05T05:50:13.177Z,569.42
2023-03-05T05:52:41.526Z,543.17
2023-03-05T05:55:11.107Z,535.67
2023-03-05T05:57:39.731Z,512.63
2023-03-05T06:00:11.137Z,492.60
2023-03-05T06:02:40.442Z,525.38
2023-03-05T06:05:12.264Z,504.80
2023-03-05T06:07:40.824Z,433.10
2023-03-05T06:10:10.964Z,540.47
2023-03-05T06:12:39.492Z,485.42
2023-03-05T06:15:09.047Z,510.42
2023-03-05T06:17:37.387Z,473.90
2023-03-05T06:20:06.943Z,506.05
2023-03-05T06:22:39.285Z,622.97
2023-03-05T06:25:09.176Z,501.90
2023-03-05T06:27:40.775Z,451.67
2023-03-05T06:30:17.455Z,489.10
2023-03-05T06:32:45.861Z,487.35
2023-03-05T06:35:14.389Z,479.13
2023-03-05T06:37:44.854Z,509.27
2023-03-05T06:40:15.924Z,481.95
2023-03-05T06:42:44.588Z,434.60
2023-03-05T06:45:15.645Z,431.30
2023-03-05T06:47:44.132Z,481.40
2023-03-05T06:50:13.604Z,411.90
2023-03-05T06:52:43.445Z,384.23
2023-03-05T06:55:12.356Z,495.60
2023-03-05T06:57:40.759Z,508.95
2023-03-05T07:00:11.012Z,493.52
2023-03-05T07:02:39.739Z,428.85
2023-03-05T07:05:09.165Z,500.52
2023-03-05T07:07:37.777Z,470.10
2023-03-05T07:10:09.740Z,401.83
2023-03-05T07:12:38.809Z,386.40
2023-03-05T07:15:08.582Z,387.52
2023-03-05T07:17:37.031Z,412.48
2023-03-05T07:20:06.159Z,412.58
2023-03-05T07:22:34.821Z,411.35
2023-03-05T07:25:03.570Z,444.20
2023-03-05T07:27:36.798Z,423.63
2023-03-05T07:30:06.323Z,363.85
2023-03-05T07:32:37.055Z,385.90
2023-03-05T07:35:06.140Z,423.27
2023-03-05T07:37:34.679Z,387.25
2023-03-05T07:40:03.905Z,343.13
2023-03-05T07:42:33.809Z,342.17
2023-03-05T07:45:02.200Z,362.90
2023-03-05T07:47:30.736Z,363.30
2023-03-05T07:49:59.167Z,373.75
2023-03-05T07:52:27.544Z,328.30
2023-03-05T07:54:56.020Z,298.75
2023-03-05T07:57:24.597Z,292.52
2023-03-05T07:59:54.818Z,377.88
2023-03-05T08:02:23.269Z,298.08
2023-03-05T08:04:51.646Z,358.25
2023-03-05T08:07:20.062Z,277.20
2023-03-05T08:09:48.454Z,377.77
2023-03-05T08:12:17.041Z,309.55
2023-03-05T08:14:45.621Z,352.77
2023-03-05T08:17:15.395Z,368.25
2023-03-05T08:19:43.737Z,317.60
2023-03-05T08:22:12.265Z,304.73
2023-03-05T08:24:40.761Z,306.42
2023-03-05T08:27:09.140Z,216.85
2023-03-05T08:29:37.491Z,380.85
2023-03-05T08:32:06.674Z,268.80
2023-03-05T08:34:36.667Z,243.73
2023-03-05T08:37:06.144Z,355.33
2023-03-05T08:39:34.588Z,365.05
2023-03-05T08:42:03.041Z,255.63
2023-03-05T08:44:31.788Z,208.50
2023-03-05T08:47:07.041Z,253.52
2023-03-05T08:49:36.834Z,366.30
2023-03-05T08:52:05.362Z,267.85
2023-03-05T08:54:35.932Z,383.67
2023-03-05T09:02:27.167Z,338.77
2023-03-05T09:04:57.141Z,288.73
2023-03-05T09:07:25.705Z,248.75
2023-03-05T09:09:55.614Z,257.50
2023-03-05T09:12:26.865Z,311.15
2023-03-05T09:15:01.833Z,253.75
2023-03-05T09:17:32.284Z,274.98
2023-03-05T09:20:02.251Z,401.17
2023-03-05T09:22:31.172Z,232.68
2023-03-05T09:24:59.789Z,309.50
2023-03-05T09:27:28.341Z,283.98
2023-03-05T09:29:56.926Z,271.98
2023-03-05T09:32:25.378Z,257.05
2023-03-05T09:34:53.922Z,256.10
2023-03-05T09:37:23.897Z,353.60
2023-03-05T09:39:52.586Z,235.85
2023-03-05T09:42:36.020Z,361.92
2023-03-05T09:45:15.778Z,334.80
2023-03-05T09:48:04.576Z,318.80
2023-03-05T09:50:40.007Z,251.95
2023-03-05T09:53:22.768Z,264.50
2023-03-05T09:55:53.044Z,301.02
2023-03-05T09:58:27.241Z,343.23
2023-03-05T10:00:59.043Z,326.50
2023-03-05T10:03:29.743Z,293.05
2023-03-05T10:06:05.188Z,296.30
2023-03-05T10:08:47.736Z,289.75
2023-03-05T10:11:41.635Z,330.88
2023-03-05T10:14:17.236Z,332.35
2023-03-05T10:17:03.813Z,356.55
2023-03-05T10:19:57.495Z,319.23
2023-03-05T10:22:27.982Z,318.50
2023-03-05T10:25:12.342Z,248.80
2023-03-05T10:28:06.000Z,441.13
2023-03-05T10:30:48.721Z,329.25
2023-03-05T10:33:23.750Z,249.90
2023-03-05T10:36:14.426Z,258.15
2023-03-05T10:39:22.198Z,304.50
2023-03-05T10:42:02.432Z,308.55
2023-03-05T10:44:36.518Z,303.90
2023-03-05T10:47:11.658Z,303.35
2023-03-05T10:49:48.060Z,266.23
2023-03-05T10:52:19.401Z,325.73
2023-03-05T10:54:48.056Z,315.48
2023-03-05T10:57:20.827Z,450.15
2023-03-05T10:59:51.706Z,487.80
2023-03-05T11:02:21.255Z,295.45
2023-03-05T11:04:50.425Z,335.77
2023-03-05T11:07:34.653Z,266.58
2023-03-05T11:10:21.269Z,269.65
2023-03-05T11:12:51.268Z,282.05
2023-03-05T11:15:31.469Z,375.48
2023-03-05T11:18:21.103Z,315.02
2023-03-05T11:20:49.723Z,474.52
2023-03-05T11:23:19.239Z,366.45
2023-03-05T11:26:02.130Z,306.27
2023-03-05T11:29:00.326Z,348.20
2023-03-05T11:31:53.867Z,383.90
2023-03-05T11:34:31.605Z,473.63
2023-03-05T11:37:13.486Z,343.60
2023-03-05T11:39:42.164Z,428.77
2023-03-05T11:42:14.655Z,302.38
2023-03-05T11:44:48.303Z,317.60
2023-03-05T11:47:25.810Z,379.10
2023-03-05T11:49:56.794Z,277.30
2023-03-05T11:52:31.079Z,298.65
2023-03-05T11:55:05.863Z,316.95
2023-03-05T11:57:40.281Z,310.38
2023-03-05T12:00:12.358Z,269.85
2023-03-05T12:02:42.904Z,328.88
2023-03-05T12:05:16.546Z,366.25
2023-03-05T12:07:50.246Z,284.58
2023-03-05T12:10:20.824Z,324.83
2023-03-05T12:13:00.443Z,308.65
2023-03-05T12:16:01.493Z,311.27
2023-03-05T12:18:38.897Z,284.20
2023-03-05T12:21:10.567Z,359.17
2023-03-05T12:23:50.402Z,288.25
2023-03-05T12:26:19.099Z,336.85
2023-03-05T12:28:58.277Z,303.00
2023-03-05T12:31:45.594Z,347.75
2023-03-05T12:34:38.278Z,395.33
2023-03-05T12:37:14.567Z,344.13
2023-03-05T12:39:52.907Z,347.95
2023-03-05T12:42:47.739Z,396.40
2023-03-05T12:45:33.971Z,329.40
2023-03-05T12:48:39.836Z,219.00
2023-03-05T12:51:36.425Z,344.98
2023-03-05T12:54:24.985Z,300.52
2023-03-05T12:56:54.677Z,324.55
2023-03-05T12:59:26.438Z,349.48
2023-03-05T13:01:57.140Z,316.20
2023-03-05T13:04:27.532Z,300.80
2023-03-05T13:07:05.334Z,296.98
2023-03-05T13:09:36.586Z,324.67
2023-03-05T13:12:07.617Z,330.05
2023-03-05T13:14:42.255Z,357.67
2023-03-05T13:17:44.365Z,304.83
2023-03-05T13:20:35.047Z,371.67
2023-03-05T13:23:19.839Z,346.25
2023-03-05T13:25:59.218Z,349.38
2023-03-05T13:28:28.514Z,292.05
2023-03-05T13:30:59.321Z,423.75
2023-03-05T13:33:29.592Z,335.00
2023-03-05T13:35:58.366Z,327.85
2023-03-05T13:38:32.821Z,316.00
2023-03-05T13:41:18.120Z,306.90
2023-03-05T13:43:46.804Z,347.92
2023-03-05T13:46:15.889Z,342.90
2023-03-05T13:48:44.453Z,460.05
2023-03-05T13:51:14.707Z,301.83
2023-03-05T13:53:45.085Z,394.65
2023-03-05T13:56:21.240Z,263.80
2023-03-05T13:58:52.459Z,335.55
2023-03-05T14:01:29.806Z,477.23
2023-03-05T14:04:00.697Z,291.27
2023-03-05T14:06:30.909Z,416.25
2023-03-05T14:09:07.116Z,272.35
2023-03-05T14:11:36.238Z,315.67
2023-03-05T14:14:09.646Z,281.70
2023-03-05T14:16:38.168Z,242.68
2023-03-05T14:19:09.153Z,267.48
2023-03-05T14:21:48.320Z,301.67
2023-03-05T14:24:23.617Z,344.48
2023-03-05T14:26:53.631Z,293.98
2023-03-05T14:29:24.323Z,331.98
2023-03-05T14:31:54.924Z,303.90
2023-03-05T14:34:27.123Z,293.30
2023-03-05T14:36:57.039Z,294.90
2023-03-05T14:39:34.162Z,427.05
2023-03-05T14:42:33.595Z,538.25
2023-03-05T14:45:05.444Z,396.95
2023-03-05T14:47:33.798Z,310.88
2023-03-05T14:50:02.199Z,335.90
2023-03-05T14:52:30.909Z,515.22
2023-03-05T14:55:01.591Z,336.65
2023-03-05T14:57:30.855Z,313.38
2023-03-05T14:59:59.328Z,311.70
2023-03-05T15:02:28.805Z,310.83
2023-03-05T15:04:57.434Z,458.55
2023-03-05T15:07:30.796Z,334.70
2023-03-05T15:10:01.146Z,331.15
2023-03-05T15:12:32.559Z,448.30
2023-03-05T15:15:01.669Z,343.17
2023-03-05T15:17:35.938Z,342.98
2023-03-05T15:20:08.157Z,358.73
2023-03-05T15:22:37.016Z,327.75
2023-03-05T15:25:07.732Z,314.30
2023-03-05T15:27:36.492Z,325.88
2023-03-05T15:30:05.891Z,327.13
2023-03-05T15:32:34.491Z,348.95
2023-03-05T15:35:02.991Z,364.25
2023-03-05T15:37:31.513Z,327.50
2023-03-05T15:40:06.118Z,377.10
2023-03-05T15:42:36.061Z,284.60
2023-03-05T15:45:05.046Z,350.58
2023-03-05T15:47:50.680Z,361.30
2023-03-05T15:50:27.852Z,327.55
2023-03-05T15:52:56.965Z,284.80
2023-03-05T15:55:25.580Z,332.15
2023-03-05T15:57:55.620Z,434.92
2023-03-05T16:00:27.183Z,305.02
2023-03-05T16:02:55.632Z,452.08
2023-03-05T16:05:24.616Z,274.27
2023-03-05T16:08:03.168Z,262.63
2023-03-05T16:10:32.541Z,338.00
2023-03-05T16:13:04.995Z,324.30
2023-03-05T16:15:35.505Z,358.48
2023-03-05T16:18:06.400Z,330.65
2023-03-05T16:20:36.282Z,334.38
2023-03-05T16:23:05.099Z,354.92
2023-03-05T16:25:33.863Z,329.45
2023-03-05T16:28:04.310Z,302.80
2023-03-05T16:30:33.777Z,361.17
2023-03-05T16:33:02.704Z,385.65
2023-03-05T16:35:32.265Z,346.77
2023-03-05T16:38:01.405Z,278.88
2023-03-05T16:40:51.390Z,343.25
2023-03-05T16:43:23.035Z,311.70
2023-03-05T16:45:51.736Z,378.75
2023-03-05T16:48:20.354Z,324.77
2023-03-05T16:50:49.411Z,343.35
2023-03-05T16:53:17.987Z,282.17
2023-03-05T16:55:46.552Z,326.88
2023-03-05T16:58:15.209Z,352.77
2023-03-05T17:00:45.297Z,349.92
2023-03-05T17:03:14.000Z,351.23
2023-03-05T17:05:42.812Z,340.92
2023-03-05T17:08:11.416Z,340.42
2023-03-05T17:10:42.356Z,363.30
2023-03-05T17:13:11.178Z,372.08
2023-03-05T17:15:39.923Z,615.88
2023-03-05T17:18:10.073Z,282.35
2023-03-05T17:20:38.635Z,462.48
2023-03-05T17:23:07.165Z,331.48
2023-03-05T17:25:35.705Z,338.48
2023-03-05T17:28:04.160Z,411.85
2023-03-05T17:30:33.546Z,320.00
2023-03-05T17:33:02.048Z,286.38
2023-03-05T17:35:32.619Z,328.48
2023-03-05T17:38:01.144Z,385.17
2023-03-05T17:40:57.824Z,271.17
2023-03-05T17:43:28.846Z,286.88
2023-03-05T17:46:01.408Z,323.77
2023-03-05T17:48:30.819Z,569.58
2023-03-05T17:51:00.976Z,346.52
2023-03-05T17:53:29.481Z,331.90
2023-03-05T17:55:57.938Z,307.23
2023-03-05T17:58:26.335Z,345.13
2023-03-05T18:00:54.934Z,332.15
2023-03-05T18:03:23.359Z,309.67
2023-03-05T18:05:51.823Z,216.25
2023-03-05T18:08:21.723Z,264.13
2023-03-05T18:10:50.130Z,334.08
2023-03-05T18:13:18.506Z,277.88
2023-03-05T18:15:48.288Z,350.02
2023-03-05T18:18:17.305Z,391.13
2023-03-05T18:20:47.480Z,351.25
2023-03-05T18:23:15.871Z,294.60
2023-03-05T18:25:45.651Z,312.35
2023-03-05T18:28:15.750Z,396.33
2023-03-05T18:30:45.764Z,316.38
2023-03-05T18:33:19.330Z,367.40
2023-03-05T18:35:49.660Z,308.30
2023-03-05T18:38:18.113Z,361.23
2023-03-05T18:40:51.116Z,333.67
2023-03-05T18:43:20.699Z,261.27
2023-03-05T18:45:49.360Z,356.98
2023-03-05T18:48:18.061Z,266.30
2023-03-05T18:50:46.892Z,303.48
2023-03-05T18:53:15.786Z,324.65
2023-03-05T18:55:44.960Z,244.30
2023-03-05T18:58:15.418Z,395.00
2023-03-05T19:00:44.926Z,329.48
2023-03-05T19:03:14.213Z,259.10
2023-03-05T19:05:43.126Z,342.70
2023-03-05T19:08:12.154Z,348.20
2023-03-05T19:10:40.985Z,311.50
2023-03-05T19:13:23.137Z,337.25
2023-03-05T19:15:53.501Z,286.55
2023-03-05T19:18:23.366Z,365.80
2023-03-05T19:20:56.231Z,320.00
2023-03-05T19:23:25.362Z,303.05
2023-03-05T19:25:53.792Z,324.38
2023-03-05T19:28:22.324Z,312.92
2023-03-05T19:30:52.491Z,283.73
2023-03-05T19:33:21.273Z,276.77
2023-03-05T19:35:51.033Z,340.75
2023-03-05T19:38:19.551Z,342.88
2023-03-05T19:40:49.510Z,359.13
2023-03-05T19:43:18.525Z,294.75
2023-03-05T19:45:47.015Z,336.63
2023-03-05T19:48:16.906Z,321.42
2023-03-05T19:50:45.634Z,369.20
2023-03-05T19:53:14.208Z,322.35
2023-03-05T19:55:42.891Z,309.13
2023-03-05T19:58:11.305Z,337.30
2023-03-05T20:00:40.028Z,329.83
2023-03-05T20:03:09.170Z,212.43
2023-03-05T20:05:41.170Z,214.45
2023-03-05T20:08:09.902Z,332.33
2023-03-05T20:10:38.579Z,361.38
2023-03-05T20:13:07.620Z,327.98
2023-03-05T20:15:36.399Z,319.05
2023-03-05T20:18:10.135Z,314.88
2023-03-05T20:20:50.278Z,393.90
2023-03-05T20:23:25.235Z,312.70
2023-03-05T20:25:54.396Z,385.08
2023-03-05T20:28:26.187Z,192.63
2023-03-05T20:30:58.032Z,287.33
2023-03-05T20:33:28.098Z,302.70
2023-03-05T20:35:58.041Z,291.05
2023-03-05T20:38:29.620Z,302.20
2023-03-05T20:41:00.590Z,327.00
2023-03-05T20:43:31.588Z,330.02
2023-03-05T20:46:01.021Z,277.73
2023-03-05T20:48:31.207Z,296.85
2023-03-05T20:51:11.230Z,386.58
2023-03-05T20:53:39.646Z,331.63
2023-03-05T20:56:08.758Z,378.77
2023-03-05T20:58:37.666Z,354.23
2023-03-05T21:01:31.200Z,323.88
2023-03-05T21:03:59.792Z,335.63
2023-03-05T21:06:30.605Z,341.75
2023-03-05T21:09:00.044Z,351.00
2023-03-05T21:11:28.550Z,275.60
2023-03-05T21:13:57.496Z,352.13
2023-03-05T21:16:28.208Z,317.30
2023-03-05T21:19:04.471Z,355.20
2023-03-05T21:21:34.378Z,310.92
2023-03-05T21:24:02.941Z,318.45
2023-03-05T21:26:31.427Z,287.50
2023-03-05T21:28:59.903Z,325.27
2023-03-05T21:31:28.523Z,320.88
2023-03-05T21:33:57.010Z,300.67
2023-03-05T21:36:25.433Z,296.60
2023-03-05T21:38:55.332Z,313.83
2023-03-05T21:41:23.800Z,342.60
2023-03-05T21:43:52.471Z,233.90
2023-03-05T21:46:21.017Z,344.85
2023-03-05T21:48:49.484Z,346.65
2023-03-05T21:51:25.575Z,330.70
2023-03-05T21:53:55.615Z,312.98
2023-03-05T21:56:25.188Z,318.98
2023-03-05T21:58:54.082Z,323.95
2023-03-05T22:01:24.849Z,312.55
2023-03-05T22:03:53.981Z,278.23
2023-03-05T22:06:23.474Z,246.73
2023-03-05T22:08:52.047Z,315.60
2023-03-05T22:11:24.481Z,301.00
2023-03-05T22:13:54.998Z,232.20
2023-03-05T22:16:24.758Z,304.50
2023-03-05T22:18:53.685Z,326.40
2023-03-05T22:21:23.780Z,272.23
2023-03-05T22:23:53.415Z,297.73
2023-03-05T22:26:23.791Z,345.27
2023-03-05T22:28:52.375Z,323.38
2023-03-05T22:31:25.143Z,331.05
2023-03-05T22:33:54.061Z,281.58
2023-03-05T22:36:22.506Z,353.33
2023-03-05T22:38:51.114Z,302.52
2023-03-05T22:41:20.631Z,330.67
2023-03-05T22:43:51.612Z,347.17
2023-03-05T22:46:21.647Z,343.92
2023-03-05T22:48:50.449Z,210.57
2023-03-05T22:51:19.492Z,322.15
2023-03-05T22:53:48.272Z,300.83
2023-03-05T22:56:18.732Z,279.95
2023-03-05T22:58:47.220Z,347.85
2023-03-05T23:01:18.420Z,190.45
2023-03-05T23:03:47.210Z,304.63
2023-03-05T23:06:15.775Z,302.15
2023-03-05T23:08:44.101Z,244.85
2023-03-05T23:11:13.713Z,288.40
2023-03-05T23:13:42.590Z,307.05
2023-03-05T23:16:10.976Z,280.38
2023-03-05T23:18:40.712Z,342.05
2023-03-05T23:21:09.094Z,277.38
2023-03-05T23:23:37.769Z,372.38
2023-03-05T23:26:06.420Z,299.27
2023-03-05T23:28:34.767Z,306.08
2023-03-05T23:31:04.268Z,309.88
2023-03-05T23:33:32.741Z,317.80
2023-03-05T23:36:02.698Z,288.38
2023-03-05T23:38:32.172Z,338.67
2023-03-05T23:41:03.269Z,317.30
2023-03-05T23:43:31.820Z,331.15
2023-03-05T23:46:01.754Z,294.15
2023-03-05T23:48:30.977Z,327.40
2023-03-05T23:51:00.741Z,354.63
2023-03-05T23:53:31.223Z,309.90
2023-03-05T23:55:59.768Z,283.73
2023-03-05T23:58:28.237Z,318.50
